createdAt,value
2022-08-05T00:11:30.195Z,34.1893
2022-08-05T00:26:36.738Z,34.8424
2022-08-05T00:41:46.806Z,33.9553
2022-08-05T00:56:54.264Z,34.6313
2022-08-05T01:11:56.117Z,34.8263
2022-08-05T01:26:57.942Z,35.233
2022-08-05T01:41:59.939Z,36.6172
2022-08-05T01:58:11.073Z,35.441
2022-08-05T02:13:16.906Z,35.2621
2022-08-05T02:28:29.316Z,35.6874
2022-08-05T02:43:34.567Z,35.7654
2022-08-05T02:59:04.810Z,34.9532
2022-08-05T03:14:07.886Z,30.5691
2022-08-05T03:29:12.254Z,28.7287
2022-08-05T03:44:19.970Z,31.4878
2022-08-05T03:59:22.090Z,32.3718
2022-08-05T04:14:30.054Z,32.2616
2022-08-05T04:29:32.490Z,30.3599
2022-08-05T04:44:34.633Z,28.1109
2022-08-05T04:59:38.355Z,26.5181
2022-08-05T05:14:49.435Z,29.8331
2022-08-05T05:30:04.669Z,31.4352
2022-08-05T05:45:07.348Z,28.7894
2022-08-05T06:00:10.257Z,25.0782
2022-08-05T06:15:23.615Z,24.8628
2022-08-05T06:30:27.343Z,29.1856
2022-08-05T06:45:44.527Z,27.7525
2022-08-05T07:01:05.416Z,27.6485
2022-08-05T07:16:07.343Z,27.3297
2022-08-05T07:31:13.938Z,22.6398
2022-08-05T07:46:18.914Z,25.2237
2022-08-05T08:01:27.496Z,25.116
2022-08-05T08:16:34.309Z,24.115
2022-08-05T08:31:44.668Z,24.3428
2022-08-05T08:46:46.484Z,23.5591
2022-08-05T09:01:57.025Z,18.9206
2022-08-05T09:16:59.496Z,22.7692
2022-08-05T09:32:42.252Z,18.9763
2022-08-05T09:47:56.255Z,22.5383
2022-08-05T10:02:59.107Z,20.2565
2022-08-05T10:18:01.113Z,22.2554
2022-08-05T10:33:03.689Z,22.4863
2022-08-05T10:48:30.670Z,22.8175
2022-08-05T11:03:36.288Z,22.8794
2022-08-05T11:18:38.656Z,22.2096
2022-08-05T11:33:48.898Z,21.9855
2022-08-05T11:48:50.815Z,19.6975
2022-08-05T12:03:55.556Z,20.3506
2022-08-05T12:18:58.071Z,17.3111
2022-08-05T12:33:59.898Z,17.841
2022-08-05T12:49:13.078Z,17.256
2022-08-05T13:04:20.892Z,20.4738
2022-08-05T13:19:23.147Z,20.3407
2022-08-05T13:34:26.256Z,19.7328
2022-08-05T13:49:28.308Z,21.9979
2022-08-05T14:04:37.139Z,22.0988
2022-08-05T14:19:54.233Z,20.0516
2022-08-05T14:34:59.589Z,21.7837
2022-08-05T14:50:04.858Z,21.0885
2022-08-05T15:05:14.796Z,21.4036
2022-08-05T15:20:19.255Z,21.7676
2022-08-05T15:35:21.961Z,21.3906
2022-08-05T15:50:25.178Z,22.0406
2022-08-05T16:05:28.153Z,22.0765
2022-08-05T16:20:30.513Z,22.2845
2022-08-05T16:35:41.985Z,21.6735
2022-08-05T16:50:44.777Z,21.4426
2022-08-05T17:05:50.213Z,20.7598
2022-08-05T17:20:55.440Z,21.1498
2022-08-05T17:36:07.300Z,22.6776
2022-08-05T17:51:12.586Z,21.0068
2022-08-05T18:06:15.855Z,24.0005
2022-08-05T18:21:20.054Z,24.0983
2022-08-05T18:36:27.812Z,22.5544
2022-08-05T18:52:04.747Z,21.6605
2022-08-05T19:07:09.527Z,24.0364
2022-08-05T19:22:11.475Z,26.7571
2022-08-05T19:37:19.318Z,27.6869
2022-08-05T19:52:31.205Z,28.2979
2022-08-05T20:07:47.277Z,28.9349
2022-08-05T20:22:51.045Z,28.5554
2022-08-05T20:38:07.800Z,28.7894
2022-08-05T20:53:16.092Z,29.6796
2022-08-05T21:08:42.464Z,29.9916
2022-08-05T21:23:45.990Z,29.8653
2022-08-05T21:38:48.665Z,30.2553
2022-08-05T21:53:56.863Z,30.0411
2022-08-05T22:09:14.850Z,30.1971
2022-08-05T22:24:40.730Z,30.6973
2022-08-05T22:39:55.068Z,30.6521
2022-08-05T22:54:57.018Z,30.9802
2022-08-05T23:10:02.134Z,31.0811
2022-08-05T23:25:04.631Z,31.442
2022-08-05T23:40:10.749Z,31.858
2022-08-05T23:55:13.521Z,32.3359
